Time;durP1;ratioP1;P1;durP2;ratioP2;P2;SDS_P1;SDS_P2;PMS_P1;PMS_P2;Temp;Humidity;BMP_temperature;BMP_pressure;BME280_temperature;BME280_humidity;BME280_pressure;Samples;Min_cycle;Max_cycle;Signal;HPM_P1;HPM_P2
2021/03/31 00:01:22;;;;;;;12.40;5.93;;;;;;;;;;5045707;28;20521;-70
2021/03/31 00:03:48;;;;;;;11.40;6.20;;;;;;;;;;5052850;28;20451;-70
2021/03/31 00:06:14;;;;;;;10.03;6.13;;;;;;;;;;5036692;28;20520;-70
2021/03/31 00:08:42;;;;;;;10.37;5.90;;;;;;;;;;5033087;28;20427;-70
2021/03/31 00:11:08;;;;;;;10.43;5.47;;;;;;;;;;5043631;28;20556;-70
2021/03/31 00:13:34;;;;;;;11.70;6.20;;;;;;;;;;5055147;28;20429;-70
2021/03/31 00:16:00;;;;;;;9.90;5.90;;;;;;;;;;5054704;28;20436;-70
2021/03/31 00:18:26;;;;;;;8.97;6.00;;;;;;;;;;5056326;28;20557;-70
2021/03/31 00:20:53;;;;;;;9.43;5.40;;;;;;;;;;5054321;28;20428;-70
2021/03/31 00:23:21;;;;;;;14.13;6.57;;;;;;;;;;5056376;28;20405;-70
2021/03/31 00:25:47;;;;;;;9.00;5.80;;;;;;;;;;5053467;28;20789;-70
2021/03/31 00:28:14;;;;;;;8.10;5.47;;;;;;;;;;5053009;28;20452;-71
2021/03/31 00:30:40;;;;;;;9.47;5.33;;;;;;;;;;5041128;28;20898;-70
2021/03/31 00:33:06;;;;;;;12.47;5.47;;;;;;;;;;5031677;28;20940;-70
2021/03/31 00:35:32;;;;;;;12.93;5.60;;;;;;;;;;5027352;28;20437;-70
2021/03/31 00:37:59;;;;;;;12.37;5.67;;;;;;;;;;5056004;28;20544;-70
2021/03/31 00:40:29;;;;;;;9.47;5.93;;;;;;;;;;5045408;28;20478;-70
2021/03/31 00:42:55;;;;;;;8.73;5.47;;;;;;;;;;5016309;28;20431;-70
2021/03/31 00:45:21;;;;;;;12.37;5.60;;;;;;;;;;5038299;28;20483;-70
2021/03/31 00:47:47;;;;;;;11.60;5.60;;;;;;;;;;5055864;28;20495;-70
2021/03/31 00:50:15;;;;;;;18.20;6.13;;;;;;;;;;5053897;28;20436;-70
2021/03/31 00:52:42;;;;;;;10.90;6.03;;;;;;;;;;5055858;28;20489;-70
2021/03/31 00:55:09;;;;;;;13.07;5.60;;;;;;;;;;5053720;28;20738;-70
2021/03/31 00:57:35;;;;;;;13.87;6.13;;;;;;;;;;5055669;28;20550;-70
2021/03/31 01:00:02;;;;;;;8.40;5.13;;;;;;;;;;5055987;28;20390;-70
2021/03/31 01:02:28;;;;;;;11.07;5.17;;;;;;;;;;5034967;28;20938;-70
2021/03/31 01:04:54;;;;;;;14.50;6.10;;;;;;;;;;5035719;28;20897;-70
2021/03/31 01:07:20;;;;;;;10.63;6.37;;;;;;;;;;5049039;28;20802;-69
2021/03/31 01:09:46;;;;;;;14.50;6.13;;;;;;;;;;5055480;28;20499;-69
2021/03/31 01:12:32;;;;;;;11.53;4.87;;;;;;;;;;5027511;28;20439;-69
2021/03/31 01:15:01;;;;;;;10.50;5.00;;;;;;;;;;5015752;28;20414;-70
2021/03/31 01:17:30;;;;;;;13.03;6.10;;;;;;;;;;5015719;28;20565;-69
2021/03/31 01:19:56;;;;;;;9.90;5.30;;;;;;;;;;5015805;28;20402;-70
2021/03/31 01:22:41;;;;;;;10.60;5.53;;;;;;;;;;5015643;28;20445;-70
2021/03/31 01:25:29;;;;;;;16.93;5.70;;;;;;;;;;5015397;28;20484;-70
2021/03/31 01:28:13;;;;;;;13.53;5.10;;;;;;;;;;5051836;28;20459;-70
2021/03/31 01:31:11;;;;;;;14.20;5.60;;;;;;;;;;5032224;28;20791;-70
2021/03/31 01:33:50;;;;;;;12.87;4.70;;;;;;;;;;4989952;28;20429;-70
2021/03/31 01:36:17;;;;;;;11.00;5.27;;;;;;;;;;5034541;28;20407;-69
2021/03/31 01:38:44;;;;;;;6.70;4.67;;;;;;;;;;5015117;28;20510;-70
2021/03/31 01:41:11;;;;;;;9.50;5.57;;;;;;;;;;5015119;28;20442;-70
2021/03/31 01:43:37;;;;;;;15.70;5.90;;;;;;;;;;5052318;28;20437;-70
2021/03/31 01:46:03;;;;;;;9.43;4.57;;;;;;;;;;5054849;28;20441;-70
2021/03/31 01:48:31;;;;;;;13.17;5.53;;;;;;;;;;5017715;28;20971;-70
2021/03/31 01:51:01;;;;;;;9.83;5.50;;;;;;;;;;5015315;28;20415;-70
2021/03/31 01:53:28;;;;;;;10.40;5.23;;;;;;;;;;5031277;28;20438;-70
2021/03/31 01:55:54;;;;;;;11.73;4.97;;;;;;;;;;5033670;28;20521;-70
2021/03/31 01:58:21;;;;;;;9.00;5.00;;;;;;;;;;5033164;23;20484;-81
2021/03/31 02:00:49;;;;;;;9.27;5.23;;;;;;;;;;5077840;28;20429;-82
2021/03/31 02:03:16;;;;;;;7.93;4.70;;;;;;;;;;5078813;28;20417;-82
2021/03/31 02:05:42;;;;;;;8.83;5.00;;;;;;;;;;5079217;28;20394;-81
2021/03/31 02:08:09;;;;;;;9.33;4.17;;;;;;;;;;5078873;28;20418;-83
2021/03/31 02:10:35;;;;;;;8.33;4.80;;;;;;;;;;5079817;28;20484;-81
2021/03/31 02:15:35;;;;;;;16.23;5.27;;;;;;;;;;5021110;22;20491;-72
2021/03/31 02:18:05;;;;;;;9.43;4.47;;;;;;;;;;5013575;28;20541;-71
2021/03/31 02:20:31;;;;;;;9.10;4.60;;;;;;;;;;4995387;28;20397;-72
2021/03/31 02:22:57;;;;;;;7.43;5.00;;;;;;;;;;4992327;28;20431;-71
2021/03/31 02:25:23;;;;;;;6.90;5.00;;;;;;;;;;4994512;28;20765;-71
2021/03/31 02:27:49;;;;;;;11.77;5.47;;;;;;;;;;4992977;28;20428;-71
2021/03/31 02:30:17;;;;;;;8.60;5.50;;;;;;;;;;4993687;28;20460;-71
2021/03/31 02:32:45;;;;;;;9.37;5.10;;;;;;;;;;4993428;28;20424;-71
2021/03/31 02:35:11;;;;;;;8.87;5.33;;;;;;;;;;4994103;28;20415;-71
2021/03/31 02:37:40;;;;;;;8.60;4.93;;;;;;;;;;4993363;28;20554;-71
2021/03/31 02:40:07;;;;;;;5.87;4.47;;;;;;;;;;4994422;28;20451;-71
2021/03/31 02:42:34;;;;;;;8.80;5.20;;;;;;;;;;4993371;28;20420;-71
2021/03/31 02:45:00;;;;;;;12.77;4.73;;;;;;;;;;4994434;28;20431;-71
2021/03/31 02:47:28;;;;;;;8.30;4.73;;;;;;;;;;4993276;28;20881;-72
2021/03/31 02:49:57;;;;;;;5.93;4.73;;;;;;;;;;4993417;28;20459;-71
2021/03/31 02:52:24;;;;;;;9.20;5.73;;;;;;;;;;4993530;28;20428;-71
2021/03/31 02:54:51;;;;;;;11.90;5.40;;;;;;;;;;4994112;28;20412;-71
2021/03/31 02:57:18;;;;;;;14.00;5.00;;;;;;;;;;4992995;28;20459;-71
2021/03/31 02:59:45;;;;;;;10.67;4.80;;;;;;;;;;4993008;28;20411;-72
2021/03/31 03:02:11;;;;;;;6.83;4.03;;;;;;;;;;5007328;28;20413;-72
2021/03/31 03:04:38;;;;;;;10.27;3.77;;;;;;;;;;4992942;28;20497;-72
2021/03/31 03:07:06;;;;;;;9.03;5.80;;;;;;;;;;4993390;28;20970;-72
2021/03/31 03:09:33;;;;;;;15.60;4.77;;;;;;;;;;4993594;28;20428;-72
2021/03/31 03:11:59;;;;;;;6.80;3.80;;;;;;;;;;4992851;28;20489;-71
2021/03/31 03:14:26;;;;;;;6.63;4.20;;;;;;;;;;4993708;28;20431;-72
2021/03/31 03:16:52;;;;;;;7.43;4.00;;;;;;;;;;4992819;28;20458;-72
2021/03/31 03:19:19;;;;;;;9.50;5.70;;;;;;;;;;4993583;28;20423;-71
2021/03/31 03:21:46;;;;;;;11.63;6.10;;;;;;;;;;4993649;28;20806;-72
2021/03/31 03:24:12;;;;;;;5.30;4.67;;;;;;;;;;4993168;28;20447;-71
2021/03/31 03:26:40;;;;;;;11.40;5.17;;;;;;;;;;4993698;28;20909;-71
2021/03/31 03:29:07;;;;;;;6.30;4.33;;;;;;;;;;4992650;28;20458;-71
2021/03/31 03:31:33;;;;;;;7.47;4.20;;;;;;;;;;4993718;28;20430;-71
2021/03/31 03:34:01;;;;;;;8.17;3.90;;;;;;;;;;4992134;28;20952;-71
2021/03/31 03:36:27;;;;;;;7.43;3.60;;;;;;;;;;4993429;28;20407;-71
2021/03/31 03:38:53;;;;;;;8.10;4.63;;;;;;;;;;4992654;28;20443;-71
2021/03/31 03:41:19;;;;;;;8.43;4.00;;;;;;;;;;4992262;28;20463;-71
2021/03/31 03:43:45;;;;;;;8.63;3.07;;;;;;;;;;4992564;28;20463;-71
2021/03/31 03:46:12;;;;;;;7.47;3.80;;;;;;;;;;4993488;28;20401;-71
2021/03/31 03:48:39;;;;;;;6.60;3.57;;;;;;;;;;4995096;28;20546;-71
2021/03/31 03:51:08;;;;;;;8.50;4.07;;;;;;;;;;5012472;28;20417;-71
2021/03/31 03:53:35;;;;;;;6.83;3.67;;;;;;;;;;4996817;28;20437;-71
2021/03/31 03:56:01;;;;;;;7.87;3.60;;;;;;;;;;4997358;28;20400;-71
2021/03/31 03:58:27;;;;;;;4.83;3.43;;;;;;;;;;4996373;28;20491;-71
2021/03/31 04:00:57;;;;;;;7.77;3.60;;;;;;;;;;4997220;28;20906;-71
2021/03/31 04:03:23;;;;;;;5.10;3.07;;;;;;;;;;4995004;28;20428;-71
2021/03/31 04:05:49;;;;;;;4.60;2.83;;;;;;;;;;4997110;28;20496;-72
2021/03/31 04:08:15;;;;;;;4.30;3.00;;;;;;;;;;4995305;28;20435;-71
2021/03/31 04:10:43;;;;;;;6.77;3.37;;;;;;;;;;4996878;28;20503;-71
2021/03/31 04:13:09;;;;;;;11.60;3.43;;;;;;;;;;5011112;28;20436;-71
2021/03/31 04:15:35;;;;;;;13.90;4.07;;;;;;;;;;4996696;28;20514;-71
2021/03/31 04:18:02;;;;;;;7.40;3.77;;;;;;;;;;4995896;28;20971;-71
2021/03/31 04:20:28;;;;;;;5.73;3.30;;;;;;;;;;4997013;28;20502;-71
2021/03/31 04:22:54;;;;;;;8.57;4.07;;;;;;;;;;4995379;28;20430;-71
2021/03/31 04:25:22;;;;;;;7.13;3.83;;;;;;;;;;4996726;28;20410;-71
2021/03/31 04:27:49;;;;;;;11.83;3.60;;;;;;;;;;4995520;28;20424;-71
2021/03/31 04:30:15;;;;;;;6.00;3.67;;;;;;;;;;4996528;28;20427;-71
2021/03/31 04:32:45;;;;;;;4.10;3.00;;;;;;;;;;4994441;28;20487;-71
2021/03/31 04:35:12;;;;;;;4.87;3.43;;;;;;;;;;4996428;28;20408;-70
2021/03/31 04:37:39;;;;;;;7.07;3.43;;;;;;;;;;4995682;28;20458;-70
2021/03/31 04:40:15;;;;;;;11.53;4.57;;;;;;;;;;4996521;28;20462;-71
2021/03/31 04:42:41;;;;;;;5.00;3.50;;;;;;;;;;4982217;28;20935;-70
2021/03/31 04:45:08;;;;;;;10.43;4.10;;;;;;;;;;4996450;28;20397;-71
2021/03/31 04:47:35;;;;;;;5.67;4.73;;;;;;;;;;5010603;28;20953;-71
2021/03/31 04:50:01;;;;;;;9.83;6.13;;;;;;;;;;5011138;28;20957;-71
2021/03/31 04:52:29;;;;;;;7.73;6.10;;;;;;;;;;4995405;28;20766;-71
2021/03/31 04:54:55;;;;;;;11.47;4.20;;;;;;;;;;4996095;28;20483;-71
2021/03/31 04:57:21;;;;;;;7.87;4.93;;;;;;;;;;4995170;28;20544;-71
2021/03/31 04:59:47;;;;;;;9.23;5.53;;;;;;;;;;4995516;28;20422;-71
2021/03/31 05:02:13;;;;;;;13.33;6.97;;;;;;;;;;4995150;28;20407;-71
2021/03/31 05:04:39;;;;;;;10.50;5.20;;;;;;;;;;4996008;28;20396;-71
2021/03/31 05:07:06;;;;;;;8.00;4.10;;;;;;;;;;4995302;28;20420;-72
2021/03/31 05:09:32;;;;;;;17.00;5.03;;;;;;;;;;4994763;28;20963;-71
2021/03/31 05:12:00;;;;;;;9.20;4.37;;;;;;;;;;4993672;28;20438;-71
2021/03/31 05:14:26;;;;;;;9.93;4.17;;;;;;;;;;4994301;28;20982;-72
2021/03/31 05:16:52;;;;;;;8.00;4.80;;;;;;;;;;4995559;28;20467;-72
2021/03/31 05:19:18;;;;;;;13.60;4.70;;;;;;;;;;4993877;28;20459;-72
2021/03/31 05:21:44;;;;;;;8.97;4.50;;;;;;;;;;4994891;28;20426;-69
2021/03/31 05:24:10;;;;;;;10.40;4.40;;;;;;;;;;4995082;28;20436;-69
2021/03/31 05:26:37;;;;;;;7.67;3.97;;;;;;;;;;4995672;28;20444;-72
2021/03/31 05:29:03;;;;;;;8.00;4.43;;;;;;;;;;4991317;28;20451;-72
2021/03/31 05:31:29;;;;;;;12.83;4.43;;;;;;;;;;4995065;28;20924;-68
2021/03/31 05:33:55;;;;;;;7.60;4.87;;;;;;;;;;4993459;28;20956;-69
2021/03/31 05:36:21;;;;;;;11.53;6.07;;;;;;;;;;4979534;28;20480;-72
2021/03/31 05:38:47;;;;;;;11.43;5.28;;;;;;;;;;4986665;28;20837;-72
2021/03/31 05:41:13;;;;;;;11.00;4.90;;;;;;;;;;4994258;28;20573;-70
2021/03/31 05:43:40;;;;;;;11.07;5.33;;;;;;;;;;4992573;28;20435;-69
2021/03/31 05:46:08;;;;;;;12.70;4.83;;;;;;;;;;4991368;28;20569;-70
2021/03/31 05:48:34;;;;;;;15.97;5.20;;;;;;;;;;4991966;28;20518;-68
2021/03/31 05:51:00;;;;;;;11.88;6.10;;;;;;;;;;4993894;28;20416;-73
2021/03/31 05:53:27;;;;;;;12.00;5.47;;;;;;;;;;4992738;28;20428;-71
2021/03/31 05:55:53;;;;;;;9.07;5.07;;;;;;;;;;4994937;28;20418;-71
2021/03/31 05:58:20;;;;;;;12.23;5.23;;;;;;;;;;4994364;28;20498;-70
2021/03/31 06:00:47;;;;;;;8.30;4.70;;;;;;;;;;4994547;28;20440;-68
2021/03/31 06:03:13;;;;;;;15.17;4.57;;;;;;;;;;4993422;28;20432;-68
2021/03/31 06:05:40;;;;;;;15.50;4.50;;;;;;;;;;4994670;28;20401;-70
2021/03/31 06:08:06;;;;;;;11.40;5.15;;;;;;;;;;4985784;28;20416;-70
2021/03/31 06:10:32;;;;;;;9.53;5.00;;;;;;;;;;4992381;28;20191;-70
2021/03/31 06:13:00;;;;;;;11.23;4.93;;;;;;;;;;4993400;28;20495;-70
2021/03/31 06:15:30;;;;;;;11.40;5.00;;;;;;;;;;4993422;28;20490;-70
2021/03/31 06:17:58;;;;;;;10.13;5.10;;;;;;;;;;4993694;28;20464;-70
2021/03/31 06:20:58;;;;;;;13.73;5.00;;;;;;;;;;4993755;28;20638;-69
2021/03/31 06:26:17;;;;;;;14.63;5.10;;;;;;;;;;4993228;28;20431;-70
2021/03/31 06:28:43;;;;;;;8.00;4.20;;;;;;;;;;4990379;28;20802;-70
2021/03/31 06:31:09;;;;;;;11.88;6.47;;;;;;;;;;4988293;28;20511;-70
2021/03/31 06:33:36;;;;;;;13.23;5.37;;;;;;;;;;4992557;28;20185;-70
2021/03/31 06:36:03;;;;;;;12.70;4.40;;;;;;;;;;4994026;28;20423;-73
2021/03/31 06:38:30;;;;;;;8.60;4.30;;;;;;;;;;4992719;28;20547;-71
2021/03/31 06:41:00;;;;;;;12.87;4.50;;;;;;;;;;4990165;28;20467;-71
2021/03/31 06:43:36;;;;;;;15.50;5.10;;;;;;;;;;5003612;28;20483;-71
2021/03/31 06:46:09;;;;;;;14.70;5.60;;;;;;;;;;4984675;28;20405;-71
2021/03/31 06:48:42;;;;;;;10.10;3.80;;;;;;;;;;4981618;28;20980;-71
2021/03/31 06:51:22;;;;;;;6.80;4.20;;;;;;;;;;4984830;28;20463;-70
2021/03/31 06:53:49;;;;;;;9.10;3.27;;;;;;;;;;4982248;28;20434;-68
2021/03/31 06:56:15;;;;;;;7.63;3.20;;;;;;;;;;4991163;28;20417;-68
2021/03/31 06:58:41;;;;;;;10.00;4.30;;;;;;;;;;4981648;28;20473;-70
2021/03/31 07:01:26;;;;;;;11.47;3.97;;;;;;;;;;4984148;28;20482;-72
2021/03/31 07:03:53;;;;;;;8.70;3.70;;;;;;;;;;4986495;28;21136;-72
2021/03/31 07:06:19;;;;;;;6.70;3.33;;;;;;;;;;4986041;28;20408;-72
2021/03/31 07:08:46;;;;;;;13.33;4.10;;;;;;;;;;4984301;28;20529;-72
2021/03/31 07:11:12;;;;;;;10.23;3.80;;;;;;;;;;4980485;28;20432;-72
2021/03/31 07:13:41;;;;;;;23.33;4.40;;;;;;;;;;4987299;28;20436;-72
2021/03/31 07:16:07;;;;;;;9.23;3.60;;;;;;;;;;4988049;28;20448;-71
2021/03/31 07:18:34;;;;;;;7.23;2.80;;;;;;;;;;4986849;28;20483;-72
2021/03/31 07:21:00;;;;;;;6.80;2.70;;;;;;;;;;4984324;28;20480;-72
2021/03/31 07:23:27;;;;;;;6.20;3.60;;;;;;;;;;4988004;28;20497;-72
2021/03/31 07:25:53;;;;;;;7.33;2.60;;;;;;;;;;4986564;28;20932;-73
2021/03/31 07:28:26;;;;;;;6.23;3.30;;;;;;;;;;4987579;28;20427;-73
2021/03/31 07:30:53;;;;;;;8.47;4.00;;;;;;;;;;4981037;28;20936;-72
2021/03/31 07:33:20;;;;;;;6.10;2.20;;;;;;;;;;4989074;28;20468;-73
2021/03/31 07:35:48;;;;;;;10.10;2.33;;;;;;;;;;4991475;28;20416;-72
2021/03/31 07:38:15;;;;;;;2.63;1.90;;;;;;;;;;4988729;28;20478;-73
2021/03/31 07:40:42;;;;;;;6.67;2.40;;;;;;;;;;5006989;28;20901;-73
2021/03/31 07:43:10;;;;;;;5.00;2.70;;;;;;;;;;5004319;28;20417;-73
2021/03/31 07:45:39;;;;;;;6.27;1.90;;;;;;;;;;4988135;28;20425;-72
2021/03/31 07:48:05;;;;;;;12.13;2.00;;;;;;;;;;4989544;28;20421;-72
2021/03/31 07:50:32;;;;;;;4.27;1.83;;;;;;;;;;4985909;28;20781;-72
2021/03/31 07:53:00;;;;;;;3.80;1.90;;;;;;;;;;4989636;28;20428;-72
2021/03/31 07:55:32;;;;;;;5.30;2.17;;;;;;;;;;4986049;28;20432;-72
2021/03/31 07:58:15;;;;;;;3.87;1.90;;;;;;;;;;4989749;28;20534;-72
2021/03/31 08:00:57;;;;;;;4.10;2.00;;;;;;;;;;4988721;28;20782;-72
2021/03/31 08:03:25;;;;;;;4.03;2.00;;;;;;;;;;4988727;28;20415;-72
2021/03/31 08:06:04;;;;;;;4.20;1.97;;;;;;;;;;4988366;28;20483;-72
2021/03/31 08:08:31;;;;;;;3.47;1.83;;;;;;;;;;4987280;28;20463;-72
2021/03/31 08:10:59;;;;;;;5.77;2.40;;;;;;;;;;4989768;28;20925;-72
2021/03/31 08:13:25;;;;;;;8.10;2.23;;;;;;;;;;4988859;28;20420;-72
2021/03/31 08:15:51;;;;;;;11.10;1.87;;;;;;;;;;4990096;28;20455;-71
2021/03/31 08:18:17;;;;;;;5.33;2.17;;;;;;;;;;4987351;28;20967;-72
2021/03/31 08:20:45;;;;;;;6.27;2.63;;;;;;;;;;4990897;28;20436;-71
2021/03/31 08:23:11;;;;;;;6.83;2.67;;;;;;;;;;4989371;28;20774;-72
2021/03/31 08:25:39;;;;;;;5.57;1.93;;;;;;;;;;4986727;28;20437;-72
2021/03/31 08:28:07;;;;;;;5.10;2.70;;;;;;;;;;4983356;28;20413;-72
2021/03/31 08:30:38;;;;;;;5.03;2.53;;;;;;;;;;4995407;28;20472;-72
2021/03/31 08:33:04;;;;;;;4.30;2.23;;;;;;;;;;4982199;28;20472;-71
2021/03/31 08:35:31;;;;;;;11.17;2.63;;;;;;;;;;4990544;28;20436;-72
2021/03/31 08:37:58;;;;;;;3.70;2.50;;;;;;;;;;4984518;28;20600;-71
2021/03/31 08:40:28;;;;;;;4.00;2.00;;;;;;;;;;4991890;28;20458;-71
2021/03/31 08:42:58;;;;;;;4.93;1.80;;;;;;;;;;4994280;28;20433;-72
2021/03/31 08:45:24;;;;;;;6.43;2.40;;;;;;;;;;4991905;28;20436;-72
2021/03/31 08:47:51;;;;;;;4.57;2.23;;;;;;;;;;5009436;28;20416;-72
2021/03/31 08:50:23;;;;;;;7.83;2.70;;;;;;;;;;4994178;28;20452;-72
2021/03/31 08:52:56;;;;;;;5.50;2.33;;;;;;;;;;4994864;28;20483;-72
2021/03/31 08:55:23;;;;;;;4.00;1.63;;;;;;;;;;4992489;28;20756;-72
2021/03/31 08:57:49;;;;;;;7.03;2.20;;;;;;;;;;4992412;28;20817;-72
2021/03/31 09:00:15;;;;;;;6.43;2.00;;;;;;;;;;4991915;28;20449;-73
2021/03/31 09:02:41;;;;;;;3.13;1.73;;;;;;;;;;4992177;28;20830;-72
2021/03/31 09:05:09;;;;;;;8.40;1.97;;;;;;;;;;4992097;28;20464;-72
2021/03/31 09:07:35;;;;;;;5.93;2.63;;;;;;;;;;4993362;28;20933;-72
2021/03/31 09:10:02;;;;;;;7.00;2.33;;;;;;;;;;4990719;28;20454;-72
2021/03/31 09:12:29;;;;;;;4.50;1.50;;;;;;;;;;4991853;28;20444;-72
2021/03/31 09:14:56;;;;;;;4.00;1.90;;;;;;;;;;4993297;28;20865;-72
2021/03/31 09:17:22;;;;;;;9.03;2.47;;;;;;;;;;4993223;28;20548;-71
2021/03/31 09:19:59;;;;;;;6.70;1.50;;;;;;;;;;4991556;28;20583;-72
2021/03/31 09:22:26;;;;;;;5.10;1.90;;;;;;;;;;4992211;28;20878;-71
2021/03/31 09:25:00;;;;;;;7.20;2.00;;;;;;;;;;5007861;28;20429;-72
2021/03/31 09:27:28;;;;;;;4.93;2.07;;;;;;;;;;4993836;28;20452;-71
2021/03/31 09:29:54;;;;;;;4.13;1.77;;;;;;;;;;4991093;28;22015;-71
2021/03/31 09:32:41;;;;;;;3.23;1.80;;;;;;;;;;4991289;28;20452;-71
2021/03/31 09:38:11;;;;;;;5.37;1.80;;;;;;;;;;4982786;28;20473;-72
2021/03/31 09:40:37;;;;;;;3.57;2.00;;;;;;;;;;4988559;28;20428;-72
2021/03/31 09:43:04;;;;;;;4.60;1.67;;;;;;;;;;4984713;28;20413;-72
2021/03/31 09:45:31;;;;;;;6.30;2.53;;;;;;;;;;5000025;28;20430;-72
2021/03/31 09:47:58;;;;;;;8.70;3.13;;;;;;;;;;4982499;28;20457;-72
2021/03/31 09:50:25;;;;;;;7.53;2.00;;;;;;;;;;4986981;28;20452;-72
2021/03/31 09:52:55;;;;;;;5.40;2.17;;;;;;;;;;5002451;28;20471;-72
2021/03/31 09:55:21;;;;;;;4.43;2.30;;;;;;;;;;4986812;28;20531;-71
2021/03/31 09:57:50;;;;;;;8.53;4.23;;;;;;;;;;4985279;28;20458;-71
2021/03/31 10:00:16;;;;;;;5.00;2.43;;;;;;;;;;4987290;28;20515;-71
2021/03/31 10:02:43;;;;;;;4.53;2.73;;;;;;;;;;4983582;28;20489;-73
2021/03/31 10:05:19;;;;;;;7.20;2.33;;;;;;;;;;4979908;28;20413;-73
2021/03/31 10:08:21;;;;;;;5.37;2.40;;;;;;;;;;5004987;23;20522;-83
2021/03/31 10:10:48;;;;;;;4.80;2.40;;;;;;;;;;4980104;28;20427;-82
2021/03/31 10:13:16;;;;;;;5.50;2.90;;;;;;;;;;5007019;28;20430;-82
2021/03/31 10:15:43;;;;;;;7.70;2.80;;;;;;;;;;4995035;28;20440;-82
2021/03/31 10:18:15;;;;;;;6.53;2.80;;;;;;;;;;4995642;28;20486;-82
2021/03/31 10:20:50;;;;;;;6.40;2.87;;;;;;;;;;4997891;28;20423;-81
2021/03/31 10:23:24;;;;;;;6.97;3.07;;;;;;;;;;4997176;28;20482;-82
2021/03/31 10:26:07;;;;;;;8.73;3.37;;;;;;;;;;4998275;28;20487;-82
2021/03/31 10:28:36;;;;;;;11.47;4.07;;;;;;;;;;4994427;28;20431;-82
2021/03/31 10:31:44;;;;;;;7.03;3.13;;;;;;;;;;4995140;28;20495;-83
2021/03/31 10:34:19;;;;;;;8.20;3.50;;;;;;;;;;4976984;28;20448;-82
2021/03/31 10:48:17;;;;;;;6.63;4.60;;;;;;;;;;5003710;28;20451;-82
2021/03/31 10:53:16;;;;;;;12.97;4.33;;;;;;;;;;4998211;28;20810;-82
2021/03/31 10:55:47;;;;;;;7.47;3.57;;;;;;;;;;4989817;28;20496;-80
2021/03/31 10:58:16;;;;;;;5.50;3.33;;;;;;;;;;5004572;28;20461;-82
2021/03/31 11:00:42;;;;;;;4.43;3.23;;;;;;;;;;4991160;28;20424;-82
2021/03/31 11:03:08;;;;;;;6.10;3.37;;;;;;;;;;4996488;28;20660;-82
2021/03/31 11:05:34;;;;;;;9.00;3.70;;;;;;;;;;4993464;28;20480;-81
2021/03/31 11:08:01;;;;;;;12.17;4.13;;;;;;;;;;4987483;28;20520;-81
2021/03/31 11:10:27;;;;;;;6.63;4.00;;;;;;;;;;4996671;28;20441;-80
2021/03/31 11:12:53;;;;;;;8.33;3.70;;;;;;;;;;4997897;28;20439;-81
2021/03/31 11:15:21;;;;;;;8.57;3.50;;;;;;;;;;4987947;28;20452;-80
2021/03/31 11:28:09;;;;;;;6.63;4.77;;;;;;;;;;4997230;28;20505;-79
2021/03/31 11:30:35;;;;;;;8.70;4.30;;;;;;;;;;4992693;28;20436;-81
2021/03/31 11:33:02;;;;;;;7.53;4.47;;;;;;;;;;4995022;28;20459;-82
2021/03/31 11:35:28;;;;;;;6.03;4.00;;;;;;;;;;5002240;28;20448;-83
2021/03/31 11:37:54;;;;;;;10.23;3.93;;;;;;;;;;5012930;28;20447;-82
2021/03/31 11:40:20;;;;;;;9.57;4.23;;;;;;;;;;4996505;28;20444;-83
2021/03/31 11:42:47;;;;;;;10.27;5.00;;;;;;;;;;4996507;28;20523;-82
2021/03/31 11:45:13;;;;;;;11.93;4.40;;;;;;;;;;4994068;28;20452;-82
2021/03/31 11:47:39;;;;;;;12.60;4.10;;;;;;;;;;4997303;28;20577;-83
2021/03/31 11:50:05;;;;;;;12.10;4.33;;;;;;;;;;5003030;28;20479;-82
2021/03/31 11:52:31;;;;;;;10.57;4.20;;;;;;;;;;4996148;28;20453;-82
2021/03/31 11:54:58;;;;;;;9.30;4.73;;;;;;;;;;5006692;28;20462;-81
2021/03/31 11:57:29;;;;;;;7.87;5.23;;;;;;;;;;5006179;28;21044;-82
2021/03/31 11:59:58;;;;;;;8.10;3.93;;;;;;;;;;5001826;28;20443;-82
2021/03/31 12:02:24;;;;;;;7.40;4.70;;;;;;;;;;5006246;28;20439;-81
2021/03/31 12:04:53;;;;;;;9.30;4.33;;;;;;;;;;5009172;28;20506;-82
2021/03/31 12:07:28;;;;;;;7.30;4.07;;;;;;;;;;4999772;28;20452;-80
2021/03/31 12:10:22;;;;;;;9.30;4.40;;;;;;;;;;5020258;28;20439;-84
2021/03/31 12:13:26;;;;;;;11.60;4.73;;;;;;;;;;5021476;28;20413;-84
2021/03/31 12:16:11;;;;;;;;;;;;;;;;;;;;;
2021/03/31 12:18:52;;;;;;;11.00;6.00;;;;;;;;;;5008080;28;20528;-83
2021/03/31 12:21:39;;;;;;;9.07;5.40;;;;;;;;;;4992745;28;20447;-81
2021/03/31 12:24:05;;;;;;;9.47;5.30;;;;;;;;;;5011865;28;20440;-83
2021/03/31 12:26:46;;;;;;;9.63;4.90;;;;;;;;;;5014047;28;20434;-81
2021/03/31 12:29:12;;;;;;;15.03;5.10;;;;;;;;;;5007919;28;20415;-82
2021/03/31 12:31:38;;;;;;;13.60;5.90;;;;;;;;;;5005384;28;20482;-82
2021/03/31 12:34:07;;;;;;;9.87;5.83;;;;;;;;;;5010452;28;20432;-83
2021/03/31 12:36:33;;;;;;;10.07;5.40;;;;;;;;;;5014011;28;20514;-80
2021/03/31 12:38:59;;;;;;;11.10;5.63;;;;;;;;;;5019781;28;20432;-82
2021/03/31 12:41:25;;;;;;;9.40;5.60;;;;;;;;;;5019396;28;20432;-83
2021/03/31 12:43:51;;;;;;;16.50;6.13;;;;;;;;;;5019618;28;20475;-83
2021/03/31 12:46:18;;;;;;;10.50;6.67;;;;;;;;;;5014708;28;20956;-80
2021/03/31 12:48:58;;;;;;;12.27;6.10;;;;;;;;;;5010479;28;20446;-83
2021/03/31 12:51:37;;;;;;;10.10;5.80;;;;;;;;;;5008112;28;20495;-83
2021/03/31 12:56:56;;;;;;;12.50;6.70;;;;;;;;;;5001562;28;20479;-82
2021/03/31 12:59:22;;;;;;;10.13;5.90;;;;;;;;;;5003243;28;20496;-82
2021/03/31 13:01:51;;;;;;;9.00;5.17;;;;;;;;;;4997762;28;20419;-83
2021/03/31 13:04:18;;;;;;;11.87;6.47;;;;;;;;;;4999319;28;20440;-82
2021/03/31 13:06:47;;;;;;;14.77;7.27;;;;;;;;;;5006384;28;20451;-83
2021/03/31 13:09:23;;;;;;;;;;;;;;;;;;;;;
2021/03/31 13:11:51;;;;;;;14.93;8.93;;;;;;;;;;4999982;28;20420;-82
2021/03/31 13:17:08;;;;;;;19.10;6.40;;;;;;;;;;5006091;28;20466;-82
2021/03/31 13:22:24;;;;;;;12.40;7.80;;;;;;;;;;5004549;28;20443;-81
2021/03/31 13:25:01;;;;;;;16.67;7.57;;;;;;;;;;4997589;28;20447;-81
2021/03/31 13:33:21;;;;;;;13.53;7.77;;;;;;;;;;4959123;28;20423;-82
2021/03/31 13:40:42;;;;;;;17.23;8.73;;;;;;;;;;5004069;28;20459;-83
2021/03/31 13:43:08;;;;;;;15.27;7.93;;;;;;;;;;5000764;28;20423;-81
2021/03/31 13:45:34;;;;;;;13.80;8.37;;;;;;;;;;5001113;28;20445;-83
2021/03/31 13:48:15;;;;;;;12.97;8.33;;;;;;;;;;4999194;28;20495;-84
2021/03/31 13:50:41;;;;;;;12.87;8.67;;;;;;;;;;5002285;28;20420;-82
2021/03/31 13:53:08;;;;;;;14.43;8.03;;;;;;;;;;5000685;28;20606;-81
2021/03/31 13:55:37;;;;;;;15.20;7.03;;;;;;;;;;4998366;28;20946;-80
2021/03/31 13:58:05;;;;;;;14.83;7.63;;;;;;;;;;4998970;28;20503;-83
2021/03/31 14:00:32;;;;;;;12.80;8.47;;;;;;;;;;5008000;28;20421;-83
2021/03/31 14:02:58;;;;;;;12.93;7.90;;;;;;;;;;4997000;28;20519;-82
2021/03/31 14:05:27;;;;;;;16.63;8.93;;;;;;;;;;5006649;28;20879;-82
2021/03/31 14:07:53;;;;;;;16.10;7.93;;;;;;;;;;5006874;28;20482;-83
2021/03/31 14:10:20;;;;;;;12.97;8.20;;;;;;;;;;5001338;28;20952;-81
2021/03/31 14:12:48;;;;;;;14.03;8.30;;;;;;;;;;5001089;28;20520;-82
2021/03/31 14:15:15;;;;;;;15.20;8.10;;;;;;;;;;5001885;28;20455;-82
2021/03/31 14:17:41;;;;;;;17.03;8.30;;;;;;;;;;5000032;28;20467;-81
2021/03/31 14:20:09;;;;;;;18.50;8.60;;;;;;;;;;5012030;28;20419;-82
2021/03/31 14:22:39;;;;;;;12.80;8.27;;;;;;;;;;5006894;28;20435;-82
2021/03/31 14:25:13;;;;;;;19.00;10.23;;;;;;;;;;5008423;28;20435;-81
2021/03/31 14:27:39;;;;;;;16.63;9.90;;;;;;;;;;4994202;28;20451;-81
2021/03/31 14:30:08;;;;;;;19.23;9.30;;;;;;;;;;4999632;28;20420;-82
2021/03/31 14:32:45;;;;;;;25.73;9.20;;;;;;;;;;4993557;28;20519;-81
2021/03/31 14:35:12;;;;;;;16.63;7.80;;;;;;;;;;4990605;28;20851;-82
2021/03/31 14:37:50;;;;;;;15.47;8.27;;;;;;;;;;5003807;28;20502;-82
2021/03/31 14:40:16;;;;;;;13.57;8.50;;;;;;;;;;5006168;28;20831;-82
2021/03/31 14:42:42;;;;;;;17.70;8.30;;;;;;;;;;4992130;28;20462;-82
2021/03/31 14:45:12;;;;;;;17.53;8.97;;;;;;;;;;4985626;28;20439;-81
2021/03/31 14:47:44;;;;;;;14.90;8.10;;;;;;;;;;4994785;28;20444;-81
2021/03/31 14:50:11;;;;;;;13.73;8.87;;;;;;;;;;5009082;28;20502;-81
2021/03/31 14:55:58;;;;;;;13.73;7.60;;;;;;;;;;4986387;28;20443;-82
2021/03/31 15:00:54;;;;;;;16.40;9.40;;;;;;;;;;4993705;28;20519;-80
2021/03/31 15:03:20;;;;;;;20.40;9.77;;;;;;;;;;4994088;28;20475;-81
2021/03/31 15:05:47;;;;;;;16.90;9.20;;;;;;;;;;4988291;28;20789;-81
2021/03/31 15:08:13;;;;;;;16.43;8.50;;;;;;;;;;4991256;28;20447;-81
2021/03/31 15:10:39;;;;;;;18.73;8.47;;;;;;;;;;4990026;28;20420;-80
2021/03/31 15:13:05;;;;;;;13.93;9.20;;;;;;;;;;4987846;28;20509;-81
2021/03/31 15:15:31;;;;;;;13.60;8.83;;;;;;;;;;4990097;28;20479;-80
2021/03/31 15:17:59;;;;;;;11.13;7.07;;;;;;;;;;4989932;28;20522;-81
2021/03/31 15:23:12;;;;;;;11.70;8.00;;;;;;;;;;4992558;28;20527;-81
2021/03/31 15:25:38;;;;;;;25.67;9.07;;;;;;;;;;4998020;28;20461;-80
2021/03/31 15:28:04;;;;;;;14.60;8.90;;;;;;;;;;4988791;28;20452;-82
2021/03/31 15:30:30;;;;;;;19.53;9.30;;;;;;;;;;4993683;28;20491;-81
2021/03/31 15:32:56;;;;;;;17.03;9.57;;;;;;;;;;4998226;28;20494;-82
2021/03/31 15:35:23;;;;;;;18.63;9.73;;;;;;;;;;5010824;28;20441;-80
2021/03/31 15:37:49;;;;;;;15.10;9.10;;;;;;;;;;5010233;28;20448;-81
2021/03/31 15:40:15;;;;;;;17.70;9.30;;;;;;;;;;4999442;28;20451;-81
2021/03/31 15:42:41;;;;;;;15.80;9.07;;;;;;;;;;4997801;28;20515;-81
2021/03/31 15:45:08;;;;;;;20.53;9.83;;;;;;;;;;4994487;28;20463;-81
2021/03/31 15:47:43;;;;;;;14.03;8.60;;;;;;;;;;5002931;28;20825;-82